sensor_id;sensor_type;location;lat;lon;timestamp;P1;durP1;ratioP1;P2;durP2;ratioP2
6999;SDS011;3540;53.242;10.408;2022-10-16T00:00:53;7.10;;;4.40;;
6999;SDS011;3540;53.242;10.408;2022-10-16T00:03:19;4.80;;;4.30;;
6999;SDS011;3540;53.242;10.408;2022-10-16T00:05:44;7.67;;;4.60;;
6999;SDS011;3540;53.242;10.408;2022-10-16T00:08:10;6.90;;;4.60;;
6999;SDS011;3540;53.242;10.408;2022-10-16T00:10:37;4.40;;;4.00;;
6999;SDS011;3540;53.242;10.408;2022-10-16T00:13:03;5.80;;;4.30;;
6999;SDS011;3540;53.242;10.408;2022-10-16T00:15:29;6.20;;;4.30;;
6999;SDS011;3540;53.242;10.408;2022-10-16T00:17:57;9.67;;;4.70;;
6999;SDS011;3540;53.242;10.408;2022-10-16T00:20:23;5.77;;;4.53;;
6999;SDS011;3540;53.242;10.408;2022-10-16T00:22:48;5.23;;;3.97;;
6999;SDS011;3540;53.242;10.408;2022-10-16T00:25:14;4.70;;;4.17;;
6999;SDS011;3540;53.242;10.408;2022-10-16T00:27:40;4.97;;;4.50;;
6999;SDS011;3540;53.242;10.408;2022-10-16T00:30:05;5.53;;;4.50;;
6999;SDS011;3540;53.242;10.408;2022-10-16T00:32:33;6.53;;;4.47;;
6999;SDS011;3540;53.242;10.408;2022-10-16T00:34:58;6.77;;;4.57;;
6999;SDS011;3540;53.242;10.408;2022-10-16T00:37:24;7.87;;;4.27;;
6999;SDS011;3540;53.242;10.408;2022-10-16T00:39:50;4.63;;;4.10;;
6999;SDS011;3540;53.242;10.408;2022-10-16T00:42:16;7.70;;;4.13;;
6999;SDS011;3540;53.242;10.408;2022-10-16T00:47:09;5.33;;;3.60;;
6999;SDS011;3540;53.242;10.408;2022-10-16T00:49:37;5.00;;;3.33;;
6999;SDS011;3540;53.242;10.408;2022-10-16T00:52:03;5.57;;;3.33;;
6999;SDS011;3540;53.242;10.408;2022-10-16T00:54:31;9.07;;;4.33;;
6999;SDS011;3540;53.242;10.408;2022-10-16T00:57:00;6.03;;;3.53;;
6999;SDS011;3540;53.242;10.408;2022-10-16T00:59:32;4.37;;;3.63;;
6999;SDS011;3540;53.242;10.408;2022-10-16T01:02:00;4.30;;;3.30;;
6999;SDS011;3540;53.242;10.408;2022-10-16T01:04:29;4.93;;;3.30;;
6999;SDS011;3540;53.242;10.408;2022-10-16T01:07:05;4.93;;;3.30;;
6999;SDS011;3540;53.242;10.408;2022-10-16T01:12:26;5.63;;;3.03;;
6999;SDS011;3540;53.242;10.408;2022-10-16T01:15:08;5.63;;;3.07;;
6999;SDS011;3540;53.242;10.408;2022-10-16T01:20:54;5.07;;;2.80;;
6999;SDS011;3540;53.242;10.408;2022-10-16T01:31:42;4.03;;;2.43;;
6999;SDS011;3540;53.242;10.408;2022-10-16T01:34:16;5.07;;;2.63;;
6999;SDS011;3540;53.242;10.408;2022-10-16T01:36:49;3.50;;;2.40;;
6999;SDS011;3540;53.242;10.408;2022-10-16T01:39:21;3.87;;;2.77;;
6999;SDS011;3540;53.242;10.408;2022-10-16T01:42:24;4.47;;;2.30;;
6999;SDS011;3540;53.242;10.408;2022-10-16T01:44:45;3.93;;;2.30;;
6999;SDS011;3540;53.242;10.408;2022-10-16T01:47:13;6.40;;;2.27;;
6999;SDS011;3540;53.242;10.408;2022-10-16T01:49:40;6.13;;;2.00;;
6999;SDS011;3540;53.242;10.408;2022-10-16T01:52:13;2.87;;;1.87;;
6999;SDS011;3540;53.242;10.408;2022-10-16T01:54:42;3.30;;;2.00;;
6999;SDS011;3540;53.242;10.408;2022-10-16T01:57:10;4.77;;;1.90;;
6999;SDS011;3540;53.242;10.408;2022-10-16T01:59:42;3.97;;;1.90;;
6999;SDS011;3540;53.242;10.408;2022-10-16T02:02:11;4.40;;;2.10;;
6999;SDS011;3540;53.242;10.408;2022-10-16T02:04:44;4.20;;;1.80;;
6999;SDS011;3540;53.242;10.408;2022-10-16T02:07:12;6.00;;;2.00;;
6999;SDS011;3540;53.242;10.408;2022-10-16T02:09:39;5.83;;;1.80;;
6999;SDS011;3540;53.242;10.408;2022-10-16T02:12:10;2.77;;;1.70;;
6999;SDS011;3540;53.242;10.408;2022-10-16T02:14:40;4.17;;;1.83;;
6999;SDS011;3540;53.242;10.408;2022-10-16T02:17:13;9.77;;;1.80;;
6999;SDS011;3540;53.242;10.408;2022-10-16T02:19:40;3.13;;;1.60;;
6999;SDS011;3540;53.242;10.408;2022-10-16T02:22:07;3.90;;;2.13;;
6999;SDS011;3540;53.242;10.408;2022-10-16T02:27:07;4.10;;;1.90;;
6999;SDS011;3540;53.242;10.408;2022-10-16T02:29:59;5.60;;;1.67;;
6999;SDS011;3540;53.242;10.408;2022-10-16T02:33:02;2.80;;;1.60;;
6999;SDS011;3540;53.242;10.408;2022-10-16T02:35:32;2.70;;;1.50;;
6999;SDS011;3540;53.242;10.408;2022-10-16T02:37:58;4.97;;;1.60;;
6999;SDS011;3540;53.242;10.408;2022-10-16T02:40:24;4.27;;;1.67;;
6999;SDS011;3540;53.242;10.408;2022-10-16T02:42:52;3.77;;;1.57;;
6999;SDS011;3540;53.242;10.408;2022-10-16T02:45:19;6.80;;;1.60;;
6999;SDS011;3540;53.242;10.408;2022-10-16T02:47:45;3.83;;;1.77;;
6999;SDS011;3540;53.242;10.408;2022-10-16T02:50:11;3.00;;;1.40;;
6999;SDS011;3540;53.242;10.408;2022-10-16T02:52:37;5.80;;;1.60;;
6999;SDS011;3540;53.242;10.408;2022-10-16T02:55:02;1.97;;;1.40;;
6999;SDS011;3540;53.242;10.408;2022-10-16T02:57:28;3.57;;;1.60;;
6999;SDS011;3540;53.242;10.408;2022-10-16T02:59:54;5.33;;;1.67;;
6999;SDS011;3540;53.242;10.408;2022-10-16T03:02:20;5.17;;;1.73;;
6999;SDS011;3540;53.242;10.408;2022-10-16T03:04:45;3.27;;;1.60;;
6999;SDS011;3540;53.242;10.408;2022-10-16T03:07:11;6.57;;;1.60;;
6999;SDS011;3540;53.242;10.408;2022-10-16T03:09:36;2.80;;;1.63;;
6999;SDS011;3540;53.242;10.408;2022-10-16T03:12:02;3.37;;;1.70;;
6999;SDS011;3540;53.242;10.408;2022-10-16T03:14:28;3.37;;;1.67;;
6999;SDS011;3540;53.242;10.408;2022-10-16T03:16:53;3.23;;;1.93;;
6999;SDS011;3540;53.242;10.408;2022-10-16T03:19:19;2.67;;;1.60;;
6999;SDS011;3540;53.242;10.408;2022-10-16T03:21:45;4.77;;;2.00;;
6999;SDS011;3540;53.242;10.408;2022-10-16T03:24:10;4.03;;;1.50;;
6999;SDS011;3540;53.242;10.408;2022-10-16T03:26:36;2.77;;;1.70;;
6999;SDS011;3540;53.242;10.408;2022-10-16T03:29:02;3.53;;;1.70;;
6999;SDS011;3540;53.242;10.408;2022-10-16T03:31:28;2.80;;;1.50;;
6999;SDS011;3540;53.242;10.408;2022-10-16T03:33:54;4.43;;;1.43;;
6999;SDS011;3540;53.242;10.408;2022-10-16T03:36:19;4.70;;;1.77;;
6999;SDS011;3540;53.242;10.408;2022-10-16T03:38:45;7.33;;;2.00;;
6999;SDS011;3540;53.242;10.408;2022-10-16T03:41:11;4.57;;;2.10;;
6999;SDS011;3540;53.242;10.408;2022-10-16T03:43:36;4.37;;;1.80;;
6999;SDS011;3540;53.242;10.408;2022-10-16T03:46:02;4.77;;;1.83;;
6999;SDS011;3540;53.242;10.408;2022-10-16T03:48:28;6.67;;;2.10;;
6999;SDS011;3540;53.242;10.408;2022-10-16T03:50:54;3.23;;;1.80;;
6999;SDS011;3540;53.242;10.408;2022-10-16T03:53:19;3.10;;;1.80;;
6999;SDS011;3540;53.242;10.408;2022-10-16T03:55:45;4.53;;;1.87;;
6999;SDS011;3540;53.242;10.408;2022-10-16T03:58:11;4.47;;;1.80;;
6999;SDS011;3540;53.242;10.408;2022-10-16T04:00:46;3.87;;;1.50;;
6999;SDS011;3540;53.242;10.408;2022-10-16T04:03:14;4.40;;;1.70;;
6999;SDS011;3540;53.242;10.408;2022-10-16T04:05:40;3.83;;;1.70;;
6999;SDS011;3540;53.242;10.408;2022-10-16T04:08:06;6.50;;;2.00;;
6999;SDS011;3540;53.242;10.408;2022-10-16T04:10:31;5.63;;;2.00;;
6999;SDS011;3540;53.242;10.408;2022-10-16T04:12:57;4.77;;;2.07;;
6999;SDS011;3540;53.242;10.408;2022-10-16T04:15:23;3.33;;;1.80;;
6999;SDS011;3540;53.242;10.408;2022-10-16T04:17:49;8.77;;;2.50;;
6999;SDS011;3540;53.242;10.408;2022-10-16T04:20:15;3.70;;;1.97;;
6999;SDS011;3540;53.242;10.408;2022-10-16T04:22:40;4.70;;;1.90;;
6999;SDS011;3540;53.242;10.408;2022-10-16T04:25:06;6.13;;;1.80;;
6999;SDS011;3540;53.242;10.408;2022-10-16T04:27:32;4.70;;;1.90;;
6999;SDS011;3540;53.242;10.408;2022-10-16T04:29:58;6.70;;;2.30;;
6999;SDS011;3540;53.242;10.408;2022-10-16T04:32:25;3.67;;;1.80;;
6999;SDS011;3540;53.242;10.408;2022-10-16T04:34:51;4.60;;;2.07;;
6999;SDS011;3540;53.242;10.408;2022-10-16T04:37:16;4.47;;;2.00;;
6999;SDS011;3540;53.242;10.408;2022-10-16T04:39:42;7.90;;;1.97;;
6999;SDS011;3540;53.242;10.408;2022-10-16T04:42:07;3.83;;;1.90;;
6999;SDS011;3540;53.242;10.408;2022-10-16T04:44:33;5.93;;;1.80;;
6999;SDS011;3540;53.242;10.408;2022-10-16T04:46:59;7.93;;;2.27;;
6999;SDS011;3540;53.242;10.408;2022-10-16T04:49:24;3.10;;;1.93;;
6999;SDS011;3540;53.242;10.408;2022-10-16T04:51:50;6.90;;;2.20;;
6999;SDS011;3540;53.242;10.408;2022-10-16T04:54:15;4.37;;;2.10;;
6999;SDS011;3540;53.242;10.408;2022-10-16T04:56:41;5.03;;;1.90;;
6999;SDS011;3540;53.242;10.408;2022-10-16T04:59:15;5.90;;;2.10;;
6999;SDS011;3540;53.242;10.408;2022-10-16T05:01:41;3.20;;;1.90;;
6999;SDS011;3540;53.242;10.408;2022-10-16T05:04:07;5.87;;;1.93;;
6999;SDS011;3540;53.242;10.408;2022-10-16T05:06:33;5.73;;;2.43;;
6999;SDS011;3540;53.242;10.408;2022-10-16T05:08:59;3.97;;;1.90;;
6999;SDS011;3540;53.242;10.408;2022-10-16T05:11:24;6.37;;;1.93;;
6999;SDS011;3540;53.242;10.408;2022-10-16T05:13:50;4.90;;;2.00;;
6999;SDS011;3540;53.242;10.408;2022-10-16T05:16:15;4.97;;;2.20;;
6999;SDS011;3540;53.242;10.408;2022-10-16T05:18:41;6.83;;;2.03;;
6999;SDS011;3540;53.242;10.408;2022-10-16T05:21:07;5.87;;;2.30;;
6999;SDS011;3540;53.242;10.408;2022-10-16T05:23:32;2.93;;;1.90;;
6999;SDS011;3540;53.242;10.408;2022-10-16T05:25:58;4.40;;;1.93;;
6999;SDS011;3540;53.242;10.408;2022-10-16T05:28:27;6.17;;;2.07;;
6999;SDS011;3540;53.242;10.408;2022-10-16T05:30:55;4.43;;;2.00;;
6999;SDS011;3540;53.242;10.408;2022-10-16T05:33:21;5.40;;;1.87;;
6999;SDS011;3540;53.242;10.408;2022-10-16T05:35:51;4.07;;;1.93;;
6999;SDS011;3540;53.242;10.408;2022-10-16T05:38:17;4.57;;;1.83;;
6999;SDS011;3540;53.242;10.408;2022-10-16T05:40:44;2.57;;;1.90;;
6999;SDS011;3540;53.242;10.408;2022-10-16T05:43:16;3.80;;;2.00;;
6999;SDS011;3540;53.242;10.408;2022-10-16T05:45:41;8.13;;;2.20;;
6999;SDS011;3540;53.242;10.408;2022-10-16T05:48:07;3.37;;;2.00;;
6999;SDS011;3540;53.242;10.408;2022-10-16T05:50:33;9.50;;;2.13;;
6999;SDS011;3540;53.242;10.408;2022-10-16T05:52:58;5.10;;;1.90;;
6999;SDS011;3540;53.242;10.408;2022-10-16T05:55:24;3.73;;;2.10;;
6999;SDS011;3540;53.242;10.408;2022-10-16T05:57:50;4.57;;;2.03;;
6999;SDS011;3540;53.242;10.408;2022-10-16T06:00:18;7.60;;;2.23;;
6999;SDS011;3540;53.242;10.408;2022-10-16T06:02:44;5.30;;;1.90;;
6999;SDS011;3540;53.242;10.408;2022-10-16T06:05:09;8.27;;;2.00;;
6999;SDS011;3540;53.242;10.408;2022-10-16T06:07:35;8.20;;;2.30;;
6999;SDS011;3540;53.242;10.408;2022-10-16T06:10:01;3.80;;;2.20;;
6999;SDS011;3540;53.242;10.408;2022-10-16T06:12:27;3.93;;;1.97;;
6999;SDS011;3540;53.242;10.408;2022-10-16T06:14:53;6.83;;;3.60;;
6999;SDS011;3540;53.242;10.408;2022-10-16T06:17:19;10.30;;;5.27;;
6999;SDS011;3540;53.242;10.408;2022-10-16T06:19:44;7.07;;;4.27;;
6999;SDS011;3540;53.242;10.408;2022-10-16T06:22:10;6.00;;;2.80;;
6999;SDS011;3540;53.242;10.408;2022-10-16T06:24:35;7.70;;;2.30;;
6999;SDS011;3540;53.242;10.408;2022-10-16T06:27:02;9.50;;;3.60;;
6999;SDS011;3540;53.242;10.408;2022-10-16T06:29:28;7.60;;;2.63;;
6999;SDS011;3540;53.242;10.408;2022-10-16T06:31:54;10.63;;;5.20;;
6999;SDS011;3540;53.242;10.408;2022-10-16T06:34:19;5.57;;;3.17;;
6999;SDS011;3540;53.242;10.408;2022-10-16T06:36:45;8.50;;;5.00;;
6999;SDS011;3540;53.242;10.408;2022-10-16T06:39:10;4.53;;;3.00;;
6999;SDS011;3540;53.242;10.408;2022-10-16T06:41:36;7.83;;;2.80;;
6999;SDS011;3540;53.242;10.408;2022-10-16T06:44:04;7.63;;;3.10;;
6999;SDS011;3540;53.242;10.408;2022-10-16T06:46:32;8.07;;;3.00;;
6999;SDS011;3540;53.242;10.408;2022-10-16T06:48:58;6.57;;;3.20;;
6999;SDS011;3540;53.242;10.408;2022-10-16T06:51:24;7.83;;;3.20;;
6999;SDS011;3540;53.242;10.408;2022-10-16T06:53:51;5.80;;;3.40;;
6999;SDS011;3540;53.242;10.408;2022-10-16T06:56:20;7.03;;;2.87;;
6999;SDS011;3540;53.242;10.408;2022-10-16T06:58:47;9.27;;;5.33;;
6999;SDS011;3540;53.242;10.408;2022-10-16T07:01:14;9.03;;;3.90;;
6999;SDS011;3540;53.242;10.408;2022-10-16T07:03:41;5.27;;;3.63;;
6999;SDS011;3540;53.242;10.408;2022-10-16T07:06:08;4.90;;;3.53;;
6999;SDS011;3540;53.242;10.408;2022-10-16T07:08:38;12.50;;;4.67;;
6999;SDS011;3540;53.242;10.408;2022-10-16T07:11:05;6.60;;;3.67;;
6999;SDS011;3540;53.242;10.408;2022-10-16T07:13:36;5.33;;;4.10;;
6999;SDS011;3540;53.242;10.408;2022-10-16T07:16:06;9.00;;;3.20;;
6999;SDS011;3540;53.242;10.408;2022-10-16T07:18:31;7.27;;;3.80;;
6999;SDS011;3540;53.242;10.408;2022-10-16T07:21:07;9.07;;;4.43;;
6999;SDS011;3540;53.242;10.408;2022-10-16T07:23:44;11.33;;;6.10;;
6999;SDS011;3540;53.242;10.408;2022-10-16T07:26:10;18.93;;;7.80;;
6999;SDS011;3540;53.242;10.408;2022-10-16T07:28:36;19.20;;;8.60;;
6999;SDS011;3540;53.242;10.408;2022-10-16T07:31:05;12.90;;;4.80;;
6999;SDS011;3540;53.242;10.408;2022-10-16T07:33:33;6.97;;;3.93;;
6999;SDS011;3540;53.242;10.408;2022-10-16T07:35:59;4.63;;;2.60;;
6999;SDS011;3540;53.242;10.408;2022-10-16T07:38:25;8.77;;;2.77;;
6999;SDS011;3540;53.242;10.408;2022-10-16T07:40:57;6.60;;;2.53;;
6999;SDS011;3540;53.242;10.408;2022-10-16T07:43:23;4.43;;;2.50;;
6999;SDS011;3540;53.242;10.408;2022-10-16T07:45:49;9.20;;;2.87;;
6999;SDS011;3540;53.242;10.408;2022-10-16T07:48:16;4.70;;;2.17;;
6999;SDS011;3540;53.242;10.408;2022-10-16T07:50:43;7.40;;;2.33;;
6999;SDS011;3540;53.242;10.408;2022-10-16T07:53:09;7.03;;;2.27;;
6999;SDS011;3540;53.242;10.408;2022-10-16T07:55:35;5.07;;;2.20;;
6999;SDS011;3540;53.242;10.408;2022-10-16T07:58:00;5.67;;;2.10;;
6999;SDS011;3540;53.242;10.408;2022-10-16T08:00:26;4.80;;;1.90;;
6999;SDS011;3540;53.242;10.408;2022-10-16T08:02:52;4.73;;;2.00;;
6999;SDS011;3540;53.242;10.408;2022-10-16T08:05:17;3.43;;;2.00;;
6999;SDS011;3540;53.242;10.408;2022-10-16T08:07:47;5.33;;;2.00;;
6999;SDS011;3540;53.242;10.408;2022-10-16T08:10:17;3.83;;;1.97;;
6999;SDS011;3540;53.242;10.408;2022-10-16T08:12:44;5.17;;;2.00;;
6999;SDS011;3540;53.242;10.408;2022-10-16T08:15:09;3.23;;;1.80;;
6999;SDS011;3540;53.242;10.408;2022-10-16T08:17:35;3.70;;;1.90;;
6999;SDS011;3540;53.242;10.408;2022-10-16T08:20:01;3.50;;;2.13;;
6999;SDS011;3540;53.242;10.408;2022-10-16T08:22:27;5.80;;;1.93;;
6999;SDS011;3540;53.242;10.408;2022-10-16T08:24:53;3.57;;;2.00;;
6999;SDS011;3540;53.242;10.408;2022-10-16T08:27:19;7.33;;;1.80;;
6999;SDS011;3540;53.242;10.408;2022-10-16T08:29:44;5.13;;;1.60;;
6999;SDS011;3540;53.242;10.408;2022-10-16T08:32:10;5.63;;;1.87;;
6999;SDS011;3540;53.242;10.408;2022-10-16T08:34:36;6.60;;;1.63;;
6999;SDS011;3540;53.242;10.408;2022-10-16T08:37:01;3.80;;;1.80;;
6999;SDS011;3540;53.242;10.408;2022-10-16T08:39:27;3.60;;;1.50;;
6999;SDS011;3540;53.242;10.408;2022-10-16T08:47:20;3.13;;;1.60;;
6999;SDS011;3540;53.242;10.408;2022-10-16T08:50:02;3.13;;;1.70;;
6999;SDS011;3540;53.242;10.408;2022-10-16T08:52:35;7.00;;;1.90;;
6999;SDS011;3540;53.242;10.408;2022-10-16T08:55:05;2.87;;;1.63;;
6999;SDS011;3540;53.242;10.408;2022-10-16T08:57:31;5.67;;;1.87;;
6999;SDS011;3540;53.242;10.408;2022-10-16T09:00:00;3.77;;;1.77;;
6999;SDS011;3540;53.242;10.408;2022-10-16T09:02:49;4.80;;;2.00;;
6999;SDS011;3540;53.242;10.408;2022-10-16T09:16:42;3.13;;;1.30;;
6999;SDS011;3540;53.242;10.408;2022-10-16T09:19:58;1.60;;;1.33;;
6999;SDS011;3540;53.242;10.408;2022-10-16T09:22:12;2.17;;;1.33;;
6999;SDS011;3540;53.242;10.408;2022-10-16T09:24:40;2.60;;;1.43;;
6999;SDS011;3540;53.242;10.408;2022-10-16T09:27:12;3.97;;;1.37;;
6999;SDS011;3540;53.242;10.408;2022-10-16T09:29:39;3.70;;;1.60;;
6999;SDS011;3540;53.242;10.408;2022-10-16T09:32:12;2.93;;;1.50;;
6999;SDS011;3540;53.242;10.408;2022-10-16T09:34:42;2.47;;;1.30;;
6999;SDS011;3540;53.242;10.408;2022-10-16T09:37:12;2.40;;;1.50;;
6999;SDS011;3540;53.242;10.408;2022-10-16T09:39:47;2.50;;;1.70;;
6999;SDS011;3540;53.242;10.408;2022-10-16T09:42:17;3.17;;;1.47;;
6999;SDS011;3540;53.242;10.408;2022-10-16T09:44:48;2.63;;;1.30;;
6999;SDS011;3540;53.242;10.408;2022-10-16T09:47:17;4.13;;;1.40;;
6999;SDS011;3540;53.242;10.408;2022-10-16T09:49:55;3.83;;;1.40;;
6999;SDS011;3540;53.242;10.408;2022-10-16T09:52:26;3.60;;;1.33;;
6999;SDS011;3540;53.242;10.408;2022-10-16T09:57:23;2.57;;;1.50;;
6999;SDS011;3540;53.242;10.408;2022-10-16T09:59:50;3.83;;;1.50;;
6999;SDS011;3540;53.242;10.408;2022-10-16T10:04:58;6.47;;;1.50;;
6999;SDS011;3540;53.242;10.408;2022-10-16T10:07:25;7.97;;;1.37;;
6999;SDS011;3540;53.242;10.408;2022-10-16T10:09:53;3.87;;;1.37;;
6999;SDS011;3540;53.242;10.408;2022-10-16T10:12:25;4.63;;;1.20;;
6999;SDS011;3540;53.242;10.408;2022-10-16T10:14:53;3.07;;;1.60;;
6999;SDS011;3540;53.242;10.408;2022-10-16T10:17:22;5.17;;;1.20;;
6999;SDS011;3540;53.242;10.408;2022-10-16T10:19:50;3.57;;;1.40;;
6999;SDS011;3540;53.242;10.408;2022-10-16T10:35:45;4.43;;;1.53;;
6999;SDS011;3540;53.242;10.408;2022-10-16T10:46:56;1.53;;;1.20;;
6999;SDS011;3540;53.242;10.408;2022-10-16T10:57:25;3.73;;;1.23;;
6999;SDS011;3540;53.242;10.408;2022-10-16T11:10:54;5.60;;;1.30;;
6999;SDS011;3540;53.242;10.408;2022-10-16T11:13:38;2.70;;;1.30;;
6999;SDS011;3540;53.242;10.408;2022-10-16T11:16:18;2.17;;;1.30;;
6999;SDS011;3540;53.242;10.408;2022-10-16T11:21:47;1.83;;;1.20;;
6999;SDS011;3540;53.242;10.408;2022-10-16T11:24:23;3.67;;;1.13;;
6999;SDS011;3540;53.242;10.408;2022-10-16T11:26:55;3.53;;;1.40;;
6999;SDS011;3540;53.242;10.408;2022-10-16T11:29:27;2.03;;;1.20;;
6999;SDS011;3540;53.242;10.408;2022-10-16T11:32:06;1.70;;;1.20;;
6999;SDS011;3540;53.242;10.408;2022-10-16T11:34:53;3.73;;;1.83;;
6999;SDS011;3540;53.242;10.408;2022-10-16T11:37:25;4.23;;;1.40;;
6999;SDS011;3540;53.242;10.408;2022-10-16T11:40:21;2.37;;;1.30;;
6999;SDS011;3540;53.242;10.408;2022-10-16T11:42:51;4.83;;;1.43;;
6999;SDS011;3540;53.242;10.408;2022-10-16T11:45:36;2.00;;;1.10;;
6999;SDS011;3540;53.242;10.408;2022-10-16T11:51:00;4.03;;;1.67;;
6999;SDS011;3540;53.242;10.408;2022-10-16T11:53:45;4.70;;;1.43;;
6999;SDS011;3540;53.242;10.408;2022-10-16T11:56:12;4.40;;;1.50;;
6999;SDS011;3540;53.242;10.408;2022-10-16T12:04:27;3.70;;;1.20;;
6999;SDS011;3540;53.242;10.408;2022-10-16T12:07:05;6.17;;;1.60;;
6999;SDS011;3540;53.242;10.408;2022-10-16T12:09:36;4.33;;;1.40;;
6999;SDS011;3540;53.242;10.408;2022-10-16T12:12:03;3.73;;;1.40;;
6999;SDS011;3540;53.242;10.408;2022-10-16T12:14:35;3.13;;;1.30;;
6999;SDS011;3540;53.242;10.408;2022-10-16T12:20:12;3.53;;;1.20;;
6999;SDS011;3540;53.242;10.408;2022-10-16T12:25:34;4.03;;;1.40;;
6999;SDS011;3540;53.242;10.408;2022-10-16T12:28:20;2.43;;;1.20;;
6999;SDS011;3540;53.242;10.408;2022-10-16T12:31:21;5.40;;;1.40;;
6999;SDS011;3540;53.242;10.408;2022-10-16T12:33:40;4.17;;;1.20;;
6999;SDS011;3540;53.242;10.408;2022-10-16T12:36:30;5.60;;;1.37;;
6999;SDS011;3540;53.242;10.408;2022-10-16T12:38:58;4.30;;;1.47;;
6999;SDS011;3540;53.242;10.408;2022-10-16T12:41:31;2.47;;;1.33;;
6999;SDS011;3540;53.242;10.408;2022-10-16T12:43:59;3.53;;;1.40;;
6999;SDS011;3540;53.242;10.408;2022-10-16T12:49:04;3.80;;;1.40;;
6999;SDS011;3540;53.242;10.408;2022-10-16T12:51:50;6.67;;;1.53;;
6999;SDS011;3540;53.242;10.408;2022-10-16T12:54:17;3.53;;;1.40;;
6999;SDS011;3540;53.242;10.408;2022-10-16T13:05:26;2.43;;;1.40;;
6999;SDS011;3540;53.242;10.408;2022-10-16T13:17:25;4.87;;;1.47;;
6999;SDS011;3540;53.242;10.408;2022-10-16T13:23:23;3.30;;;1.40;;
6999;SDS011;3540;53.242;10.408;2022-10-16T13:26:20;4.00;;;1.67;;
6999;SDS011;3540;53.242;10.408;2022-10-16T13:28:53;3.33;;;1.33;;
6999;SDS011;3540;53.242;10.408;2022-10-16T13:31:24;5.53;;;1.47;;
6999;SDS011;3540;53.242;10.408;2022-10-16T13:33:53;4.00;;;1.70;;
6999;SDS011;3540;53.242;10.408;2022-10-16T13:36:27;3.80;;;1.20;;
6999;SDS011;3540;53.242;10.408;2022-10-16T13:39:06;3.83;;;1.40;;
6999;SDS011;3540;53.242;10.408;2022-10-16T13:42:01;3.80;;;1.30;;
6999;SDS011;3540;53.242;10.408;2022-10-16T13:44:28;3.37;;;1.40;;
6999;SDS011;3540;53.242;10.408;2022-10-16T13:47:01;3.50;;;1.20;;
6999;SDS011;3540;53.242;10.408;2022-10-16T13:49:27;4.97;;;1.70;;
6999;SDS011;3540;53.242;10.408;2022-10-16T13:51:54;3.20;;;1.30;;
6999;SDS011;3540;53.242;10.408;2022-10-16T13:54:21;4.70;;;1.47;;
6999;SDS011;3540;53.242;10.408;2022-10-16T13:56:47;3.40;;;1.60;;
6999;SDS011;3540;53.242;10.408;2022-10-16T13:59:25;2.27;;;1.20;;
6999;SDS011;3540;53.242;10.408;2022-10-16T14:01:57;5.63;;;1.47;;
6999;SDS011;3540;53.242;10.408;2022-10-16T14:04:24;3.30;;;1.50;;
6999;SDS011;3540;53.242;10.408;2022-10-16T14:06:52;5.33;;;1.63;;
6999;SDS011;3540;53.242;10.408;2022-10-16T14:12:01;2.87;;;1.40;;
6999;SDS011;3540;53.242;10.408;2022-10-16T14:14:38;4.17;;;1.40;;
6999;SDS011;3540;53.242;10.408;2022-10-16T14:17:12;4.53;;;1.30;;
6999;SDS011;3540;53.242;10.408;2022-10-16T14:19:47;3.17;;;1.30;;
6999;SDS011;3540;53.242;10.408;2022-10-16T14:28:14;6.13;;;1.67;;
6999;SDS011;3540;53.242;10.408;2022-10-16T14:30:59;2.87;;;1.30;;
6999;SDS011;3540;53.242;10.408;2022-10-16T14:36:13;3.00;;;1.30;;
6999;SDS011;3540;53.242;10.408;2022-10-16T14:39:03;3.23;;;1.30;;
6999;SDS011;3540;53.242;10.408;2022-10-16T14:41:27;5.50;;;1.70;;
6999;SDS011;3540;53.242;10.408;2022-10-16T14:43:57;4.97;;;1.50;;
6999;SDS011;3540;53.242;10.408;2022-10-16T14:46:28;5.57;;;1.50;;
6999;SDS011;3540;53.242;10.408;2022-10-16T14:51:34;3.70;;;1.50;;
6999;SDS011;3540;53.242;10.408;2022-10-16T14:53:59;5.73;;;1.53;;
6999;SDS011;3540;53.242;10.408;2022-10-16T14:56:28;5.70;;;1.60;;
6999;SDS011;3540;53.242;10.408;2022-10-16T14:59:00;3.80;;;1.70;;
6999;SDS011;3540;53.242;10.408;2022-10-16T15:01:27;3.93;;;1.50;;
6999;SDS011;3540;53.242;10.408;2022-10-16T15:03:52;4.97;;;1.70;;
6999;SDS011;3540;53.242;10.408;2022-10-16T15:06:19;3.90;;;1.40;;
6999;SDS011;3540;53.242;10.408;2022-10-16T15:08:45;6.80;;;1.50;;
6999;SDS011;3540;53.242;10.408;2022-10-16T15:11:18;2.27;;;1.37;;
6999;SDS011;3540;53.242;10.408;2022-10-16T15:13:45;3.33;;;1.50;;
6999;SDS011;3540;53.242;10.408;2022-10-16T15:16:11;3.27;;;1.30;;
6999;SDS011;3540;53.242;10.408;2022-10-16T15:18:41;5.03;;;1.70;;
6999;SDS011;3540;53.242;10.408;2022-10-16T15:21:07;7.47;;;1.80;;
6999;SDS011;3540;53.242;10.408;2022-10-16T15:23:33;3.43;;;1.20;;
6999;SDS011;3540;53.242;10.408;2022-10-16T15:25:59;2.77;;;1.40;;
6999;SDS011;3540;53.242;10.408;2022-10-16T15:28:25;4.97;;;1.63;;
6999;SDS011;3540;53.242;10.408;2022-10-16T15:30:52;2.97;;;1.37;;
6999;SDS011;3540;53.242;10.408;2022-10-16T15:33:23;5.00;;;1.57;;
6999;SDS011;3540;53.242;10.408;2022-10-16T15:35:52;4.87;;;1.70;;
6999;SDS011;3540;53.242;10.408;2022-10-16T15:38:19;3.40;;;1.70;;
6999;SDS011;3540;53.242;10.408;2022-10-16T15:40:46;4.30;;;1.70;;
6999;SDS011;3540;53.242;10.408;2022-10-16T15:43:12;5.27;;;1.50;;
6999;SDS011;3540;53.242;10.408;2022-10-16T15:45:38;4.47;;;1.60;;
6999;SDS011;3540;53.242;10.408;2022-10-16T15:48:04;4.67;;;1.73;;
6999;SDS011;3540;53.242;10.408;2022-10-16T15:50:30;4.73;;;1.20;;
6999;SDS011;3540;53.242;10.408;2022-10-16T15:52:57;5.87;;;1.73;;
6999;SDS011;3540;53.242;10.408;2022-10-16T15:55:22;4.00;;;1.60;;
6999;SDS011;3540;53.242;10.408;2022-10-16T15:57:48;7.07;;;1.67;;
6999;SDS011;3540;53.242;10.408;2022-10-16T16:00:15;5.27;;;1.70;;
6999;SDS011;3540;53.242;10.408;2022-10-16T16:02:43;5.27;;;1.60;;
6999;SDS011;3540;53.242;10.408;2022-10-16T16:05:09;5.30;;;1.80;;
6999;SDS011;3540;53.242;10.408;2022-10-16T16:07:36;4.27;;;1.80;;
6999;SDS011;3540;53.242;10.408;2022-10-16T16:10:03;5.63;;;1.80;;
6999;SDS011;3540;53.242;10.408;2022-10-16T16:12:31;7.50;;;3.10;;
6999;SDS011;3540;53.242;10.408;2022-10-16T16:14:57;6.73;;;2.97;;
6999;SDS011;3540;53.242;10.408;2022-10-16T16:17:22;7.00;;;2.33;;
6999;SDS011;3540;53.242;10.408;2022-10-16T16:19:49;5.97;;;2.17;;
6999;SDS011;3540;53.242;10.408;2022-10-16T16:22:15;4.87;;;2.03;;
6999;SDS011;3540;53.242;10.408;2022-10-16T16:24:40;7.10;;;1.90;;
6999;SDS011;3540;53.242;10.408;2022-10-16T16:27:06;8.57;;;1.90;;
6999;SDS011;3540;53.242;10.408;2022-10-16T16:29:32;4.97;;;2.03;;
6999;SDS011;3540;53.242;10.408;2022-10-16T16:31:58;6.47;;;2.23;;
6999;SDS011;3540;53.242;10.408;2022-10-16T16:34:25;10.60;;;3.63;;
6999;SDS011;3540;53.242;10.408;2022-10-16T16:36:51;10.57;;;2.73;;
6999;SDS011;3540;53.242;10.408;2022-10-16T16:39:17;4.63;;;2.27;;
6999;SDS011;3540;53.242;10.408;2022-10-16T16:41:43;6.13;;;2.17;;
6999;SDS011;3540;53.242;10.408;2022-10-16T16:44:10;4.10;;;2.07;;
6999;SDS011;3540;53.242;10.408;2022-10-16T16:46:37;7.80;;;4.63;;
6999;SDS011;3540;53.242;10.408;2022-10-16T16:49:04;7.53;;;3.30;;
6999;SDS011;3540;53.242;10.408;2022-10-16T16:51:30;8.60;;;5.40;;
6999;SDS011;3540;53.242;10.408;2022-10-16T16:53:56;9.60;;;6.07;;
6999;SDS011;3540;53.242;10.408;2022-10-16T16:56:22;7.93;;;4.53;;
6999;SDS011;3540;53.242;10.408;2022-10-16T16:58:50;12.23;;;6.73;;
6999;SDS011;3540;53.242;10.408;2022-10-16T17:01:18;6.30;;;3.47;;
6999;SDS011;3540;53.242;10.408;2022-10-16T17:03:44;7.80;;;3.00;;
6999;SDS011;3540;53.242;10.408;2022-10-16T17:06:10;9.57;;;3.20;;
6999;SDS011;3540;53.242;10.408;2022-10-16T17:08:38;7.07;;;3.23;;
6999;SDS011;3540;53.242;10.408;2022-10-16T17:11:04;6.43;;;3.47;;
6999;SDS011;3540;53.242;10.408;2022-10-16T17:13:31;11.20;;;4.37;;
6999;SDS011;3540;53.242;10.408;2022-10-16T17:16:02;11.80;;;4.57;;
6999;SDS011;3540;53.242;10.408;2022-10-16T17:18:29;17.40;;;4.90;;
6999;SDS011;3540;53.242;10.408;2022-10-16T17:20:58;8.33;;;3.93;;
6999;SDS011;3540;53.242;10.408;2022-10-16T17:23:25;9.37;;;3.87;;
6999;SDS011;3540;53.242;10.408;2022-10-16T17:25:50;7.93;;;4.03;;
6999;SDS011;3540;53.242;10.408;2022-10-16T17:28:16;12.73;;;5.77;;